Terminal Aerodrome Forecast
Issued by NWS

Home | Current Version | Previous Version | Text Only | Print | Product List | Glossary On
Versions: 1 2 3 4 5 6 7 8 9 10 11 12 13 14 15 16 17 18 19 20 21 22 23 24 25
000
FTUS44 KTSA 162320
TAFFYV
TAF
KFYV 162320Z 1700/1724 18011KT P6SM SCT035 BKN100
     FM170500 19008KT P6SM VCTS BKN050CB BKN120
      TEMPO 1706/1708 VRB15KT 3SM TSRA SCT025 BKN035CB
     FM171000 21007KT P6SM SCT040 BKN150
     FM171500 26007KT P6SM FEW015 SCT025 BKN035=

USA.gov is the U.S. government's official web portal to all federal, state and local government web resources and services.